createdAt,value
2023-04-21T00:02:18.720Z,8.15
2023-04-21T00:07:16.218Z,7.28
2023-04-21T00:12:14.821Z,8.23
2023-04-21T00:17:11.258Z,7.40
2023-04-21T00:22:12.126Z,7.07
2023-04-21T00:27:08.590Z,7.28
2023-04-21T00:32:08.324Z,8.00
2023-04-21T00:37:04.770Z,6.95
2023-04-21T00:42:01.570Z,7.20
2023-04-21T00:46:58.093Z,7.20
2023-04-21T00:51:54.976Z,7.10
2023-04-21T01:01:48.085Z,6.82
2023-04-21T01:12:11.799Z,7.05
2023-04-21T01:17:08.673Z,6.95
2023-04-21T01:27:03.345Z,7.23
2023-04-21T01:32:04.829Z,7.50
2023-04-21T01:37:01.520Z,7.00
2023-04-21T01:41:57.962Z,6.88
2023-04-21T01:46:55.552Z,6.90
2023-04-21T01:51:52.006Z,7.25
2023-04-21T01:56:48.570Z,7.65
2023-04-21T02:01:45.220Z,6.80
2023-04-21T02:06:41.740Z,7.00
2023-04-21T02:11:38.189Z,6.90
2023-04-21T02:16:34.671Z,7.10
2023-04-21T02:21:32.324Z,7.20
2023-04-21T02:26:28.817Z,6.20
2023-04-21T02:31:25.457Z,6.20
2023-04-21T02:36:22.002Z,7.53
2023-04-21T02:41:18.527Z,6.70
2023-04-21T02:46:15.103Z,6.20
2023-04-21T02:51:13.306Z,7.63
2023-04-21T02:56:09.907Z,6.00
2023-04-21T03:01:06.475Z,6.20
2023-04-21T03:06:04.676Z,5.85
2023-04-21T03:11:02.189Z,6.53
2023-04-21T03:15:58.665Z,6.50
2023-04-21T03:20:59.872Z,6.28
2023-04-21T03:25:56.428Z,6.95
2023-04-21T03:30:52.850Z,7.05
2023-04-21T03:35:49.279Z,6.65
2023-04-21T03:40:45.784Z,6.68
2023-04-21T03:45:42.289Z,6.53
2023-04-21T03:50:38.960Z,7.20
2023-04-21T03:55:35.397Z,6.20
2023-04-21T04:00:31.884Z,6.68
2023-04-21T04:05:28.384Z,6.88
2023-04-21T04:10:24.814Z,7.13
2023-04-21T04:15:21.333Z,6.88
2023-04-21T04:20:17.953Z,6.47
2023-04-21T04:25:16.976Z,6.72
2023-04-21T04:30:16.064Z,6.40
2023-04-21T04:59:44.836Z,6.68
2023-04-21T05:04:44.880Z,6.53
2023-04-21T08:40:09.819Z,5.43
2023-04-21T08:45:21.648Z,6.07
2023-04-21T08:50:53.089Z,6.05
2023-04-21T08:56:11.377Z,5.85
2023-04-21T09:01:19.679Z,5.32
2023-04-21T09:06:21.768Z,5.78
2023-04-21T09:11:38.764Z,5.68
2023-04-21T09:16:38.559Z,5.60
2023-04-21T09:21:42.985Z,5.68
2023-04-21T09:26:43.572Z,5.80
2023-04-21T09:31:44.422Z,5.63
2023-04-21T09:36:45.507Z,5.50
2023-04-21T09:41:44.265Z,5.38
2023-04-21T09:46:48.984Z,5.22
2023-04-21T09:56:49.616Z,5.32
2023-04-21T10:01:50.182Z,5.13
2023-04-21T10:06:48.123Z,4.88
2023-04-21T10:11:44.628Z,5.45
2023-04-21T10:21:38.592Z,5.43
2023-04-21T10:31:34.612Z,5.35
2023-04-21T10:36:34.829Z,5.50
2023-04-21T10:41:33.953Z,5.18
2023-04-21T10:46:35.513Z,5.40
2023-04-21T10:51:33.054Z,5.95
2023-04-21T10:56:29.643Z,5.03
2023-04-21T11:01:26.161Z,5.82
2023-04-21T11:06:22.679Z,5.28
2023-04-21T11:11:26.740Z,5.32
2023-04-21T11:16:23.196Z,4.72
2023-04-21T11:21:22.966Z,4.78
2023-04-21T11:26:20.982Z,4.97
2023-04-21T11:31:17.573Z,4.90
2023-04-21T11:36:15.174Z,4.97
2023-04-21T11:41:20.809Z,4.93
2023-04-21T11:46:46.903Z,4.95
2023-04-21T11:51:51.314Z,5.35
2023-04-21T11:56:51.554Z,5.07
2023-04-21T12:01:55.425Z,4.82
2023-04-21T12:07:09.967Z,4.78
2023-04-21T12:12:06.441Z,5.03
2023-04-21T12:17:02.892Z,4.43
2023-04-21T12:22:04.028Z,4.60
2023-04-21T12:27:02.077Z,4.35
2023-04-21T12:32:00.894Z,4.63
2023-04-21T12:36:57.535Z,4.20
2023-04-21T12:41:54.063Z,4.60
2023-04-21T12:46:52.662Z,4.88
2023-04-21T12:51:49.508Z,4.28
2023-04-21T13:02:17.493Z,4.40
2023-04-21T13:07:18.386Z,4.30
2023-04-21T13:12:26.483Z,4.05
2023-04-21T13:17:26.203Z,3.92
2023-04-21T13:22:37.643Z,4.53
2023-04-21T13:27:38.563Z,4.18
2023-04-21T13:32:55.511Z,4.22
2023-04-21T13:37:54.327Z,4.60
2023-04-21T13:42:53.063Z,3.97
2023-04-21T13:47:51.783Z,4.50
2023-04-21T13:52:49.029Z,4.13
2023-04-21T13:57:45.867Z,4.15
2023-04-21T14:02:42.898Z,4.40
2023-04-21T14:08:26.639Z,4.20
2023-04-21T14:13:35.746Z,5.22
2023-04-21T14:18:34.291Z,5.05
2023-04-21T14:23:30.781Z,4.20
2023-04-21T14:28:30.877Z,3.90
2023-04-21T14:33:35.233Z,4.20
2023-04-21T14:38:33.662Z,4.53
2023-04-21T14:43:30.253Z,4.28
2023-04-21T14:48:27.193Z,4.35
2023-04-21T14:53:25.665Z,4.40
2023-04-21T14:58:31.076Z,4.32
2023-04-21T15:03:35.212Z,4.30
2023-04-21T15:08:31.869Z,4.57
2023-04-21T15:13:28.401Z,4.60
2023-04-21T15:18:25.008Z,4.10
2023-04-21T15:23:21.468Z,4.32
2023-04-21T15:28:17.917Z,4.53
2023-04-21T15:33:14.728Z,4.68
2023-04-21T15:38:11.463Z,5.18
2023-04-21T15:43:08.071Z,4.45
2023-04-21T15:48:04.611Z,4.15
2023-04-21T15:53:04.450Z,3.95
2023-04-21T15:58:01.059Z,4.57
2023-04-21T16:02:58.603Z,4.50
2023-04-21T16:07:55.452Z,3.95
2023-04-21T16:12:52.265Z,4.32
2023-04-21T16:17:49.309Z,4.38
2023-04-21T16:22:46.590Z,4.28
2023-04-21T16:27:44.183Z,4.05
2023-04-21T16:32:40.801Z,4.30
2023-04-21T16:37:40.435Z,4.80
2023-04-21T16:42:37.477Z,4.72
2023-04-21T16:47:41.729Z,4.30
2023-04-21T16:52:38.714Z,4.30
2023-04-21T16:57:35.243Z,4.18
2023-04-21T17:02:31.815Z,4.18
2023-04-21T17:07:28.543Z,3.92
2023-04-21T17:12:25.066Z,4.20
2023-04-21T17:17:21.512Z,4.00
2023-04-21T17:22:18.000Z,4.38
2023-04-21T17:27:14.453Z,4.22
2023-04-21T17:32:10.980Z,3.83
2023-04-21T17:37:07.464Z,3.65
2023-04-21T17:42:04.824Z,4.38
2023-04-21T17:47:02.103Z,4.38
2023-04-21T17:51:58.598Z,4.13
2023-04-21T17:56:55.223Z,4.20
2023-04-21T18:02:02.274Z,3.75
2023-04-21T18:07:03.155Z,4.40
2023-04-21T18:12:00.999Z,4.03
2023-04-21T18:16:58.102Z,4.43
2023-04-21T18:21:57.333Z,4.05
2023-04-21T18:26:56.791Z,4.00
2023-04-21T18:32:00.538Z,5.15
2023-04-21T18:36:57.353Z,5.25
2023-04-21T18:41:56.600Z,4.60
2023-04-21T18:46:53.889Z,4.30
2023-04-21T18:51:53.401Z,5.25
2023-04-21T18:56:49.972Z,4.68
2023-04-21T19:01:46.685Z,5.05
2023-04-21T19:06:43.330Z,4.95
2023-04-21T19:11:39.938Z,4.97
2023-04-21T19:16:36.659Z,4.70
2023-04-21T19:21:40.551Z,4.80
2023-04-21T19:26:39.235Z,4.43
2023-04-21T19:31:35.790Z,4.50
2023-04-21T19:36:32.640Z,4.40
2023-04-21T19:41:29.213Z,4.30
2023-04-21T19:46:25.724Z,3.95
2023-04-21T19:51:25.070Z,3.90
2023-04-21T19:56:21.620Z,4.32
2023-04-21T20:06:14.602Z,3.92
2023-04-21T20:11:11.340Z,3.47
2023-04-21T20:16:07.897Z,3.28
2023-04-21T20:26:01.250Z,3.83
2023-04-21T20:30:57.823Z,3.42
2023-04-21T20:40:53.700Z,3.17
2023-04-21T20:45:50.725Z,3.40
2023-04-21T20:50:49.810Z,3.10
2023-04-21T20:55:51.961Z,3.42
2023-04-21T21:00:48.577Z,3.25
2023-04-21T21:10:41.491Z,3.60
2023-04-21T21:20:34.509Z,3.35
2023-04-21T21:30:29.705Z,3.13
2023-04-21T21:35:29.218Z,3.05
2023-04-21T21:40:28.472Z,3.08
2023-04-21T21:45:25.009Z,3.78
2023-04-21T21:50:21.591Z,3.25
2023-04-21T21:55:20.572Z,3.65
2023-04-21T22:00:20.570Z,3.08
2023-04-21T22:05:17.579Z,3.42
2023-04-21T22:10:14.072Z,2.88
2023-04-21T22:15:13.918Z,3.35
2023-04-21T22:20:12.061Z,3.03
2023-04-21T22:25:09.006Z,3.13
2023-04-21T22:30:06.151Z,3.05
2023-04-21T22:35:03.290Z,3.53
2023-04-21T22:40:00.638Z,3.30
2023-04-21T22:44:57.134Z,3.40
2023-04-21T22:49:54.102Z,3.30
2023-04-21T22:54:50.677Z,2.70
2023-04-21T22:59:47.149Z,3.20
2023-04-21T23:04:43.594Z,3.15
2023-04-21T23:09:40.363Z,2.63
2023-04-21T23:14:37.034Z,2.78
2023-04-21T23:19:33.509Z,2.70
2023-04-21T23:24:30.021Z,2.53
2023-04-21T23:29:28.859Z,2.90
2023-04-21T23:34:25.560Z,2.78
2023-04-21T23:44:19.125Z,2.65
2023-04-21T23:54:19.517Z,2.85
2023-04-21T23:59:18.472Z,2.85
